sensor_id;sensor_type;location;lat;lon;timestamp;temperature;humidity
13694;DHT22;6919;52.344;14.518;2023-06-24T00:01:53;17.10;99.90
13694;DHT22;6919;52.344;14.518;2023-06-24T00:04:22;17.10;99.90
13694;DHT22;6919;52.344;14.518;2023-06-24T00:06:51;17.10;99.90
13694;DHT22;6919;52.344;14.518;2023-06-24T00:09:26;17.10;99.90
13694;DHT22;6919;52.344;14.518;2023-06-24T00:11:55;17.00;99.90
13694;DHT22;6919;52.344;14.518;2023-06-24T00:14:23;17.00;99.90
13694;DHT22;6919;52.344;14.518;2023-06-24T00:16:54;17.00;99.90
13694;DHT22;6919;52.344;14.518;2023-06-24T00:19:24;17.00;99.90
13694;DHT22;6919;52.344;14.518;2023-06-24T00:21:55;17.00;99.90
13694;DHT22;6919;52.344;14.518;2023-06-24T00:24:25;17.00;99.90
13694;DHT22;6919;52.344;14.518;2023-06-24T00:26:54;17.00;99.90
13694;DHT22;6919;52.344;14.518;2023-06-24T00:29:23;17.00;99.90
13694;DHT22;6919;52.344;14.518;2023-06-24T00:31:51;17.00;99.90
13694;DHT22;6919;52.344;14.518;2023-06-24T00:34:20;17.00;99.90
13694;DHT22;6919;52.344;14.518;2023-06-24T00:36:50;17.00;99.90
13694;DHT22;6919;52.344;14.518;2023-06-24T00:39:20;16.90;99.90
13694;DHT22;6919;52.344;14.518;2023-06-24T00:41:49;16.90;99.90
13694;DHT22;6919;52.344;14.518;2023-06-24T00:44:18;16.90;99.90
13694;DHT22;6919;52.344;14.518;2023-06-24T00:46:47;16.90;99.90
13694;DHT22;6919;52.344;14.518;2023-06-24T00:49:16;16.90;99.90
13694;DHT22;6919;52.344;14.518;2023-06-24T00:51:44;16.90;99.90
13694;DHT22;6919;52.344;14.518;2023-06-24T00:54:14;16.90;99.90
13694;DHT22;6919;52.344;14.518;2023-06-24T00:56:44;16.80;99.90
13694;DHT22;6919;52.344;14.518;2023-06-24T00:59:15;16.80;99.90
13694;DHT22;6919;52.344;14.518;2023-06-24T01:01:45;16.80;99.90
13694;DHT22;6919;52.344;14.518;2023-06-24T01:04:14;16.80;99.90
13694;DHT22;6919;52.344;14.518;2023-06-24T01:06:43;16.70;99.90
13694;DHT22;6919;52.344;14.518;2023-06-24T01:09:12;16.70;99.90
13694;DHT22;6919;52.344;14.518;2023-06-24T01:11:41;16.70;99.90
13694;DHT22;6919;52.344;14.518;2023-06-24T01:14:10;16.70;99.90
13694;DHT22;6919;52.344;14.518;2023-06-24T01:16:53;16.70;99.90
13694;DHT22;6919;52.344;14.518;2023-06-24T01:19:50;16.70;99.90
13694;DHT22;6919;52.344;14.518;2023-06-24T01:22:43;16.70;99.90
13694;DHT22;6919;52.344;14.518;2023-06-24T01:25:39;16.60;99.90
13694;DHT22;6919;52.344;14.518;2023-06-24T01:28:23;16.60;99.90
13694;DHT22;6919;52.344;14.518;2023-06-24T01:31:29;16.50;99.90
13694;DHT22;6919;52.344;14.518;2023-06-24T01:34:09;16.50;99.90
13694;DHT22;6919;52.344;14.518;2023-06-24T01:36:51;16.40;99.90
13694;DHT22;6919;52.344;14.518;2023-06-24T01:39:27;16.30;99.90
13694;DHT22;6919;52.344;14.518;2023-06-24T01:42:07;16.30;99.90
13694;DHT22;6919;52.344;14.518;2023-06-24T01:44:39;16.30;99.90
13694;DHT22;6919;52.344;14.518;2023-06-24T01:47:11;16.20;99.90
13694;DHT22;6919;52.344;14.518;2023-06-24T01:49:42;16.10;99.90
13694;DHT22;6919;52.344;14.518;2023-06-24T01:52:13;16.10;99.90
13694;DHT22;6919;52.344;14.518;2023-06-24T01:54:44;16.10;99.90
13694;DHT22;6919;52.344;14.518;2023-06-24T01:57:16;16.10;99.90
13694;DHT22;6919;52.344;14.518;2023-06-24T01:59:47;16.00;99.90
13694;DHT22;6919;52.344;14.518;2023-06-24T02:02:18;16.00;99.90
13694;DHT22;6919;52.344;14.518;2023-06-24T02:04:49;16.00;99.90
13694;DHT22;6919;52.344;14.518;2023-06-24T02:07:21;15.90;99.90
13694;DHT22;6919;52.344;14.518;2023-06-24T02:09:51;15.90;99.90
13694;DHT22;6919;52.344;14.518;2023-06-24T02:12:21;15.90;99.90
13694;DHT22;6919;52.344;14.518;2023-06-24T02:14:51;15.80;99.90
13694;DHT22;6919;52.344;14.518;2023-06-24T02:17:24;15.80;99.90
13694;DHT22;6919;52.344;14.518;2023-06-24T02:19:53;15.80;99.90
13694;DHT22;6919;52.344;14.518;2023-06-24T02:22:23;15.80;99.90
13694;DHT22;6919;52.344;14.518;2023-06-24T02:24:54;15.80;99.90
13694;DHT22;6919;52.344;14.518;2023-06-24T02:27:23;15.70;99.90
13694;DHT22;6919;52.344;14.518;2023-06-24T02:29:53;15.60;99.90
13694;DHT22;6919;52.344;14.518;2023-06-24T02:32:24;15.60;99.90
13694;DHT22;6919;52.344;14.518;2023-06-24T02:34:52;15.60;99.90
13694;DHT22;6919;52.344;14.518;2023-06-24T02:37:21;15.50;99.90
13694;DHT22;6919;52.344;14.518;2023-06-24T02:39:49;15.50;99.90
13694;DHT22;6919;52.344;14.518;2023-06-24T02:42:17;15.50;99.90
13694;DHT22;6919;52.344;14.518;2023-06-24T02:44:46;15.50;99.90
13694;DHT22;6919;52.344;14.518;2023-06-24T02:47:15;15.50;99.90
13694;DHT22;6919;52.344;14.518;2023-06-24T02:49:48;15.60;99.90
13694;DHT22;6919;52.344;14.518;2023-06-24T02:52:18;15.60;99.90
13694;DHT22;6919;52.344;14.518;2023-06-24T02:54:47;15.60;99.90
13694;DHT22;6919;52.344;14.518;2023-06-24T02:57:16;15.50;99.90
13694;DHT22;6919;52.344;14.518;2023-06-24T02:59:47;15.50;99.90
13694;DHT22;6919;52.344;14.518;2023-06-24T03:02:16;15.50;99.90
13694;DHT22;6919;52.344;14.518;2023-06-24T03:04:45;15.50;99.90
13694;DHT22;6919;52.344;14.518;2023-06-24T03:07:16;15.50;99.90
13694;DHT22;6919;52.344;14.518;2023-06-24T03:09:47;15.40;99.90
13694;DHT22;6919;52.344;14.518;2023-06-24T03:12:16;15.40;99.90
13694;DHT22;6919;52.344;14.518;2023-06-24T03:14:44;15.40;99.90
13694;DHT22;6919;52.344;14.518;2023-06-24T03:17:13;15.40;99.90
13694;DHT22;6919;52.344;14.518;2023-06-24T03:19:41;15.40;99.90
13694;DHT22;6919;52.344;14.518;2023-06-24T03:22:12;15.50;99.90
13694;DHT22;6919;52.344;14.518;2023-06-24T03:24:40;15.50;99.90
13694;DHT22;6919;52.344;14.518;2023-06-24T03:27:09;15.60;99.90
13694;DHT22;6919;52.344;14.518;2023-06-24T03:29:37;15.70;99.90
13694;DHT22;6919;52.344;14.518;2023-06-24T03:32:06;15.80;99.90
13694;DHT22;6919;52.344;14.518;2023-06-24T03:34:35;15.80;99.90
13694;DHT22;6919;52.344;14.518;2023-06-24T03:37:03;15.80;99.90
13694;DHT22;6919;52.344;14.518;2023-06-24T03:39:33;15.90;99.90
13694;DHT22;6919;52.344;14.518;2023-06-24T03:42:03;15.90;99.90
13694;DHT22;6919;52.344;14.518;2023-06-24T03:44:32;16.10;99.90
13694;DHT22;6919;52.344;14.518;2023-06-24T03:47:00;16.10;99.90
13694;DHT22;6919;52.344;14.518;2023-06-24T03:49:29;16.20;99.90
13694;DHT22;6919;52.344;14.518;2023-06-24T03:51:57;16.20;99.90
13694;DHT22;6919;52.344;14.518;2023-06-24T03:54:25;16.30;99.90
13694;DHT22;6919;52.344;14.518;2023-06-24T03:56:55;16.40;99.90
13694;DHT22;6919;52.344;14.518;2023-06-24T03:59:23;16.50;99.90
13694;DHT22;6919;52.344;14.518;2023-06-24T04:01:51;16.70;99.90
13694;DHT22;6919;52.344;14.518;2023-06-24T04:04:20;16.80;99.90
13694;DHT22;6919;52.344;14.518;2023-06-24T04:06:50;16.90;99.90
13694;DHT22;6919;52.344;14.518;2023-06-24T04:09:18;16.90;99.90
13694;DHT22;6919;52.344;14.518;2023-06-24T04:11:46;17.00;99.90
13694;DHT22;6919;52.344;14.518;2023-06-24T04:14:16;17.10;99.90
13694;DHT22;6919;52.344;14.518;2023-06-24T04:16:44;17.30;99.90
13694;DHT22;6919;52.344;14.518;2023-06-24T04:19:12;17.40;99.90
13694;DHT22;6919;52.344;14.518;2023-06-24T04:21:41;17.60;99.90
13694;DHT22;6919;52.344;14.518;2023-06-24T04:24:09;17.80;99.90
13694;DHT22;6919;52.344;14.518;2023-06-24T04:26:37;18.00;99.90
13694;DHT22;6919;52.344;14.518;2023-06-24T04:29:05;17.90;99.90
13694;DHT22;6919;52.344;14.518;2023-06-24T04:31:35;18.00;99.90
13694;DHT22;6919;52.344;14.518;2023-06-24T04:34:03;18.20;99.90
13694;DHT22;6919;52.344;14.518;2023-06-24T04:36:32;18.20;99.90
13694;DHT22;6919;52.344;14.518;2023-06-24T04:39:00;18.20;99.90
13694;DHT22;6919;52.344;14.518;2023-06-24T04:41:28;18.40;99.90
13694;DHT22;6919;52.344;14.518;2023-06-24T04:43:58;18.30;99.90
13694;DHT22;6919;52.344;14.518;2023-06-24T04:46:26;18.20;99.90
13694;DHT22;6919;52.344;14.518;2023-06-24T04:48:56;18.10;99.90
13694;DHT22;6919;52.344;14.518;2023-06-24T04:51:24;18.20;99.90
13694;DHT22;6919;52.344;14.518;2023-06-24T04:53:53;18.10;99.90
13694;DHT22;6919;52.344;14.518;2023-06-24T04:56:22;18.30;99.90
13694;DHT22;6919;52.344;14.518;2023-06-24T04:58:50;18.50;99.90
13694;DHT22;6919;52.344;14.518;2023-06-24T05:01:18;18.50;99.90
13694;DHT22;6919;52.344;14.518;2023-06-24T05:03:47;18.40;99.90
13694;DHT22;6919;52.344;14.518;2023-06-24T05:06:17;18.20;99.90
13694;DHT22;6919;52.344;14.518;2023-06-24T05:08:45;18.20;99.90
13694;DHT22;6919;52.344;14.518;2023-06-24T05:11:13;18.30;99.90
13694;DHT22;6919;52.344;14.518;2023-06-24T05:13:42;18.50;99.90
13694;DHT22;6919;52.344;14.518;2023-06-24T05:16:10;18.70;99.90
13694;DHT22;6919;52.344;14.518;2023-06-24T05:18:38;18.70;99.90
13694;DHT22;6919;52.344;14.518;2023-06-24T05:21:07;18.90;99.90
13694;DHT22;6919;52.344;14.518;2023-06-24T05:23:36;19.10;99.90
13694;DHT22;6919;52.344;14.518;2023-06-24T05:26:05;19.20;99.90
13694;DHT22;6919;52.344;14.518;2023-06-24T05:28:33;19.20;99.90
13694;DHT22;6919;52.344;14.518;2023-06-24T05:31:01;19.40;99.90
13694;DHT22;6919;52.344;14.518;2023-06-24T05:33:29;19.90;99.90
13694;DHT22;6919;52.344;14.518;2023-06-24T05:35:58;19.90;1.00
13694;DHT22;6919;52.344;14.518;2023-06-24T05:38:26;19.90;1.00
13694;DHT22;6919;52.344;14.518;2023-06-24T05:40:56;20.10;1.00
13694;DHT22;6919;52.344;14.518;2023-06-24T05:43:25;20.40;99.90
13694;DHT22;6919;52.344;14.518;2023-06-24T05:45:54;20.40;99.90
13694;DHT22;6919;52.344;14.518;2023-06-24T05:48:23;20.40;99.90
13694;DHT22;6919;52.344;14.518;2023-06-24T05:50:51;20.70;1.00
13694;DHT22;6919;52.344;14.518;2023-06-24T05:53:19;20.80;89.00
13694;DHT22;6919;52.344;14.518;2023-06-24T05:55:48;20.90;99.90
13694;DHT22;6919;52.344;14.518;2023-06-24T05:58:17;20.90;1.00
13694;DHT22;6919;52.344;14.518;2023-06-24T06:00:45;21.10;99.90
13694;DHT22;6919;52.344;14.518;2023-06-24T06:03:14;20.70;99.90
13694;DHT22;6919;52.344;14.518;2023-06-24T06:05:42;20.80;99.90
13694;DHT22;6919;52.344;14.518;2023-06-24T06:08:10;21.00;1.00
13694;DHT22;6919;52.344;14.518;2023-06-24T06:10:39;20.70;1.00
13694;DHT22;6919;52.344;14.518;2023-06-24T06:13:07;20.80;1.00
13694;DHT22;6919;52.344;14.518;2023-06-24T06:15:36;20.80;1.00
13694;DHT22;6919;52.344;14.518;2023-06-24T06:18:05;20.80;1.00
13694;DHT22;6919;52.344;14.518;2023-06-24T06:20:33;21.10;99.90
13694;DHT22;6919;52.344;14.518;2023-06-24T06:23:02;21.30;1.00
13694;DHT22;6919;52.344;14.518;2023-06-24T06:25:31;21.50;1.00
13694;DHT22;6919;52.344;14.518;2023-06-24T06:28:00;21.50;99.90
13694;DHT22;6919;52.344;14.518;2023-06-24T06:30:28;21.40;99.90
13694;DHT22;6919;52.344;14.518;2023-06-24T06:32:57;21.60;99.90
13694;DHT22;6919;52.344;14.518;2023-06-24T06:35:27;21.80;1.00
13694;DHT22;6919;52.344;14.518;2023-06-24T06:37:57;21.70;1.00
13694;DHT22;6919;52.344;14.518;2023-06-24T06:40:25;21.30;1.00
13694;DHT22;6919;52.344;14.518;2023-06-24T06:42:55;21.10;1.00
13694;DHT22;6919;52.344;14.518;2023-06-24T06:45:23;21.00;1.00
13694;DHT22;6919;52.344;14.518;2023-06-24T06:47:51;20.70;99.90
13694;DHT22;6919;52.344;14.518;2023-06-24T06:50:21;21.00;1.00
13694;DHT22;6919;52.344;14.518;2023-06-24T06:52:49;21.30;1.00
13694;DHT22;6919;52.344;14.518;2023-06-24T06:55:18;21.30;1.00
13694;DHT22;6919;52.344;14.518;2023-06-24T06:57:46;21.60;1.00
13694;DHT22;6919;52.344;14.518;2023-06-24T07:00:15;21.60;1.00
13694;DHT22;6919;52.344;14.518;2023-06-24T07:02:44;21.70;1.00
13694;DHT22;6919;52.344;14.518;2023-06-24T07:05:13;21.80;1.00
13694;DHT22;6919;52.344;14.518;2023-06-24T07:07:43;21.80;1.00
13694;DHT22;6919;52.344;14.518;2023-06-24T07:10:12;22.00;99.90
13694;DHT22;6919;52.344;14.518;2023-06-24T07:12:41;21.60;99.90
13694;DHT22;6919;52.344;14.518;2023-06-24T07:15:10;21.90;99.90
13694;DHT22;6919;52.344;14.518;2023-06-24T07:17:40;22.20;1.00
13694;DHT22;6919;52.344;14.518;2023-06-24T07:20:09;22.30;1.00
13694;DHT22;6919;52.344;14.518;2023-06-24T07:22:37;22.10;1.00
13694;DHT22;6919;52.344;14.518;2023-06-24T07:25:07;21.80;99.90
13694;DHT22;6919;52.344;14.518;2023-06-24T07:27:36;21.80;99.90
13694;DHT22;6919;52.344;14.518;2023-06-24T07:30:06;21.80;99.90
13694;DHT22;6919;52.344;14.518;2023-06-24T07:32:35;22.00;99.90
13694;DHT22;6919;52.344;14.518;2023-06-24T07:35:04;22.30;1.00
13694;DHT22;6919;52.344;14.518;2023-06-24T07:37:34;22.60;1.00
13694;DHT22;6919;52.344;14.518;2023-06-24T07:40:03;22.70;99.90
13694;DHT22;6919;52.344;14.518;2023-06-24T07:42:34;22.60;99.90
13694;DHT22;6919;52.344;14.518;2023-06-24T07:45:02;22.60;99.90
13694;DHT22;6919;52.344;14.518;2023-06-24T07:47:31;22.30;99.90
13694;DHT22;6919;52.344;14.518;2023-06-24T07:49:59;22.00;99.90
13694;DHT22;6919;52.344;14.518;2023-06-24T07:52:28;21.70;99.90
13694;DHT22;6919;52.344;14.518;2023-06-24T07:54:57;21.60;99.90
13694;DHT22;6919;52.344;14.518;2023-06-24T07:57:27;21.50;99.90
13694;DHT22;6919;52.344;14.518;2023-06-24T07:59:56;21.40;99.90
13694;DHT22;6919;52.344;14.518;2023-06-24T08:02:25;21.10;99.90
13694;DHT22;6919;52.344;14.518;2023-06-24T08:04:54;21.40;99.90
13694;DHT22;6919;52.344;14.518;2023-06-24T08:07:22;21.80;99.90
13694;DHT22;6919;52.344;14.518;2023-06-24T08:09:51;22.00;99.90
13694;DHT22;6919;52.344;14.518;2023-06-24T08:12:19;21.90;99.90
13694;DHT22;6919;52.344;14.518;2023-06-24T08:14:47;21.60;99.90
13694;DHT22;6919;52.344;14.518;2023-06-24T08:17:17;21.60;99.90
13694;DHT22;6919;52.344;14.518;2023-06-24T08:19:45;21.50;99.90
13694;DHT22;6919;52.344;14.518;2023-06-24T08:22:13;21.20;99.90
13694;DHT22;6919;52.344;14.518;2023-06-24T08:24:42;20.80;99.90
13694;DHT22;6919;52.344;14.518;2023-06-24T08:27:10;21.20;99.90
13694;DHT22;6919;52.344;14.518;2023-06-24T08:29:38;21.00;99.90
13694;DHT22;6919;52.344;14.518;2023-06-24T08:32:07;21.20;99.90
13694;DHT22;6919;52.344;14.518;2023-06-24T08:34:36;21.30;99.90
13694;DHT22;6919;52.344;14.518;2023-06-24T08:37:05;21.20;99.90
13694;DHT22;6919;52.344;14.518;2023-06-24T08:39:33;21.50;99.90
13694;DHT22;6919;52.344;14.518;2023-06-24T08:42:03;22.20;99.90
13694;DHT22;6919;52.344;14.518;2023-06-24T08:44:31;21.80;99.90
13694;DHT22;6919;52.344;14.518;2023-06-24T08:46:59;21.90;99.90
13694;DHT22;6919;52.344;14.518;2023-06-24T08:49:29;22.00;99.90
13694;DHT22;6919;52.344;14.518;2023-06-24T08:52:04;22.00;99.90
13694;DHT22;6919;52.344;14.518;2023-06-24T08:54:36;22.40;99.90
13694;DHT22;6919;52.344;14.518;2023-06-24T08:57:06;22.30;99.90
13694;DHT22;6919;52.344;14.518;2023-06-24T08:59:36;22.10;99.90
13694;DHT22;6919;52.344;14.518;2023-06-24T09:02:05;22.20;99.90
13694;DHT22;6919;52.344;14.518;2023-06-24T09:04:34;22.00;99.90
13694;DHT22;6919;52.344;14.518;2023-06-24T09:07:04;22.10;99.90
13694;DHT22;6919;52.344;14.518;2023-06-24T09:09:42;22.20;99.90
13694;DHT22;6919;52.344;14.518;2023-06-24T09:12:13;21.80;99.90
13694;DHT22;6919;52.344;14.518;2023-06-24T09:14:48;22.20;99.90
13694;DHT22;6919;52.344;14.518;2023-06-24T09:17:18;22.20;99.90
13694;DHT22;6919;52.344;14.518;2023-06-24T09:19:50;22.10;99.90
13694;DHT22;6919;52.344;14.518;2023-06-24T09:22:20;21.80;99.90
13694;DHT22;6919;52.344;14.518;2023-06-24T09:24:50;21.80;99.90
13694;DHT22;6919;52.344;14.518;2023-06-24T09:27:18;21.90;99.90
13694;DHT22;6919;52.344;14.518;2023-06-24T09:29:48;21.90;99.90
13694;DHT22;6919;52.344;14.518;2023-06-24T09:32:17;22.40;99.90
13694;DHT22;6919;52.344;14.518;2023-06-24T09:34:45;22.10;99.90
13694;DHT22;6919;52.344;14.518;2023-06-24T09:37:22;22.10;99.90
13694;DHT22;6919;52.344;14.518;2023-06-24T09:39:51;22.30;99.90
13694;DHT22;6919;52.344;14.518;2023-06-24T09:42:21;22.60;99.90
13694;DHT22;6919;52.344;14.518;2023-06-24T09:44:53;22.80;99.90
13694;DHT22;6919;52.344;14.518;2023-06-24T09:47:22;23.30;99.90
13694;DHT22;6919;52.344;14.518;2023-06-24T09:49:53;23.60;99.90
13694;DHT22;6919;52.344;14.518;2023-06-24T09:52:23;23.60;99.90
13694;DHT22;6919;52.344;14.518;2023-06-24T09:54:55;23.20;99.90
13694;DHT22;6919;52.344;14.518;2023-06-24T09:57:29;22.70;99.90
13694;DHT22;6919;52.344;14.518;2023-06-24T10:00:00;23.20;99.90
13694;DHT22;6919;52.344;14.518;2023-06-24T10:02:31;23.10;99.90
13694;DHT22;6919;52.344;14.518;2023-06-24T10:05:00;23.00;99.90
13694;DHT22;6919;52.344;14.518;2023-06-24T10:07:31;22.80;99.90
13694;DHT22;6919;52.344;14.518;2023-06-24T10:10:03;23.00;99.90
13694;DHT22;6919;52.344;14.518;2023-06-24T10:12:34;23.30;99.90
13694;DHT22;6919;52.344;14.518;2023-06-24T10:15:05;23.40;99.90
13694;DHT22;6919;52.344;14.518;2023-06-24T10:17:34;23.40;99.90
13694;DHT22;6919;52.344;14.518;2023-06-24T10:20:06;23.00;99.90
13694;DHT22;6919;52.344;14.518;2023-06-24T10:22:37;23.10;99.90
13694;DHT22;6919;52.344;14.518;2023-06-24T10:25:06;23.60;99.90
13694;DHT22;6919;52.344;14.518;2023-06-24T10:27:39;23.70;99.90
13694;DHT22;6919;52.344;14.518;2023-06-24T10:30:17;24.00;99.90
13694;DHT22;6919;52.344;14.518;2023-06-24T10:32:51;24.20;99.90
13694;DHT22;6919;52.344;14.518;2023-06-24T10:35:22;23.70;96.30
13694;DHT22;6919;52.344;14.518;2023-06-24T10:37:58;24.00;98.00
13694;DHT22;6919;52.344;14.518;2023-06-24T10:40:37;24.10;94.50
13694;DHT22;6919;52.344;14.518;2023-06-24T10:43:26;24.50;97.90
13694;DHT22;6919;52.344;14.518;2023-06-24T10:45:57;24.30;96.40
13694;DHT22;6919;52.344;14.518;2023-06-24T10:48:26;24.10;97.10
13694;DHT22;6919;52.344;14.518;2023-06-24T10:50:54;24.10;95.20
13694;DHT22;6919;52.344;14.518;2023-06-24T10:53:24;24.20;90.30
13694;DHT22;6919;52.344;14.518;2023-06-24T10:55:57;23.90;82.00
13694;DHT22;6919;52.344;14.518;2023-06-24T10:58:25;23.70;84.10
13694;DHT22;6919;52.344;14.518;2023-06-24T11:01:05;23.90;89.10
13694;DHT22;6919;52.344;14.518;2023-06-24T11:03:34;23.60;93.30
13694;DHT22;6919;52.344;14.518;2023-06-24T11:06:04;23.30;97.40
13694;DHT22;6919;52.344;14.518;2023-06-24T11:08:43;23.20;98.70
13694;DHT22;6919;52.344;14.518;2023-06-24T11:11:18;23.70;96.70
13694;DHT22;6919;52.344;14.518;2023-06-24T11:13:48;24.10;94.40
13694;DHT22;6919;52.344;14.518;2023-06-24T11:16:20;24.60;88.40
13694;DHT22;6919;52.344;14.518;2023-06-24T11:18:49;24.60;83.30
13694;DHT22;6919;52.344;14.518;2023-06-24T11:21:18;24.30;88.10
13694;DHT22;6919;52.344;14.518;2023-06-24T11:23:47;24.10;90.70
13694;DHT22;6919;52.344;14.518;2023-06-24T11:26:16;24.50;92.40
13694;DHT22;6919;52.344;14.518;2023-06-24T11:28:44;25.10;91.20
13694;DHT22;6919;52.344;14.518;2023-06-24T11:31:12;25.00;77.70
13694;DHT22;6919;52.344;14.518;2023-06-24T11:33:41;25.00;75.70
13694;DHT22;6919;52.344;14.518;2023-06-24T11:36:10;25.00;75.00
13694;DHT22;6919;52.344;14.518;2023-06-24T11:38:38;24.90;75.40
13694;DHT22;6919;52.344;14.518;2023-06-24T11:41:08;25.20;75.10
13694;DHT22;6919;52.344;14.518;2023-06-24T11:43:36;25.20;72.30
13694;DHT22;6919;52.344;14.518;2023-06-24T11:46:05;25.30;76.10
13694;DHT22;6919;52.344;14.518;2023-06-24T11:48:39;24.80;75.10
13694;DHT22;6919;52.344;14.518;2023-06-24T11:51:12;25.00;78.30
13694;DHT22;6919;52.344;14.518;2023-06-24T11:53:42;25.10;75.20
13694;DHT22;6919;52.344;14.518;2023-06-24T11:56:13;25.10;74.10
13694;DHT22;6919;52.344;14.518;2023-06-24T11:58:43;25.10;73.60
13694;DHT22;6919;52.344;14.518;2023-06-24T12:01:11;25.30;78.40
13694;DHT22;6919;52.344;14.518;2023-06-24T12:03:41;25.70;78.20
13694;DHT22;6919;52.344;14.518;2023-06-24T12:06:09;25.10;68.30
13694;DHT22;6919;52.344;14.518;2023-06-24T12:08:38;24.60;69.60
13694;DHT22;6919;52.344;14.518;2023-06-24T12:11:19;25.00;77.50
13694;DHT22;6919;52.344;14.518;2023-06-24T12:13:48;25.40;74.10
13694;DHT22;6919;52.344;14.518;2023-06-24T12:16:16;25.80;72.80
13694;DHT22;6919;52.344;14.518;2023-06-24T12:18:45;25.70;65.80
13694;DHT22;6919;52.344;14.518;2023-06-24T12:21:13;25.50;63.60
13694;DHT22;6919;52.344;14.518;2023-06-24T12:23:42;26.00;68.50
13694;DHT22;6919;52.344;14.518;2023-06-24T12:26:10;26.10;62.40
13694;DHT22;6919;52.344;14.518;2023-06-24T12:28:40;25.70;60.80
13694;DHT22;6919;52.344;14.518;2023-06-24T12:31:08;25.70;65.60
13694;DHT22;6919;52.344;14.518;2023-06-24T12:33:37;25.90;65.60
13694;DHT22;6919;52.344;14.518;2023-06-24T12:38:44;26.10;60.80
13694;DHT22;6919;52.344;14.518;2023-06-24T12:41:12;26.00;62.80
13694;DHT22;6919;52.344;14.518;2023-06-24T12:43:42;26.60;63.70
13694;DHT22;6919;52.344;14.518;2023-06-24T12:46:10;26.80;57.60
13694;DHT22;6919;52.344;14.518;2023-06-24T12:48:39;26.60;55.80
13694;DHT22;6919;52.344;14.518;2023-06-24T12:51:07;27.00;57.70
13694;DHT22;6919;52.344;14.518;2023-06-24T12:53:35;27.10;57.10
13694;DHT22;6919;52.344;14.518;2023-06-24T12:56:04;26.80;56.30
13694;DHT22;6919;52.344;14.518;2023-06-24T12:58:32;26.80;54.80
13694;DHT22;6919;52.344;14.518;2023-06-24T13:01:01;27.40;54.30
13694;DHT22;6919;52.344;14.518;2023-06-24T13:03:30;27.90;54.50
13694;DHT22;6919;52.344;14.518;2023-06-24T13:05:58;28.10;51.80
13694;DHT22;6919;52.344;14.518;2023-06-24T13:08:26;28.70;52.10
13694;DHT22;6919;52.344;14.518;2023-06-24T13:10:56;28.60;48.80
13694;DHT22;6919;52.344;14.518;2023-06-24T13:13:24;29.40;48.70
13694;DHT22;6919;52.344;14.518;2023-06-24T13:15:52;29.90;46.60
13694;DHT22;6919;52.344;14.518;2023-06-24T13:18:22;29.90;45.00
13694;DHT22;6919;52.344;14.518;2023-06-24T13:20:51;30.20;41.60
13694;DHT22;6919;52.344;14.518;2023-06-24T13:23:33;30.20;44.10
13694;DHT22;6919;52.344;14.518;2023-06-24T13:26:04;30.60;42.10
13694;DHT22;6919;52.344;14.518;2023-06-24T13:28:32;30.70;41.80
13694;DHT22;6919;52.344;14.518;2023-06-24T13:31:00;31.10;39.70
13694;DHT22;6919;52.344;14.518;2023-06-24T13:33:30;30.30;40.20
13694;DHT22;6919;52.344;14.518;2023-06-24T13:35:59;29.70;41.20
13694;DHT22;6919;52.344;14.518;2023-06-24T13:38:28;29.00;41.30
13694;DHT22;6919;52.344;14.518;2023-06-24T13:40:56;29.00;43.50
13694;DHT22;6919;52.344;14.518;2023-06-24T13:43:25;29.00;44.60
13694;DHT22;6919;52.344;14.518;2023-06-24T13:45:53;28.90;44.70
13694;DHT22;6919;52.344;14.518;2023-06-24T13:48:23;29.00;43.50
13694;DHT22;6919;52.344;14.518;2023-06-24T13:50:53;29.50;41.40
13694;DHT22;6919;52.344;14.518;2023-06-24T13:53:21;30.20;42.20
13694;DHT22;6919;52.344;14.518;2023-06-24T13:55:49;30.80;39.10
13694;DHT22;6919;52.344;14.518;2023-06-24T13:58:20;30.80;38.40
13694;DHT22;6919;52.344;14.518;2023-06-24T14:00:48;30.40;39.10
13694;DHT22;6919;52.344;14.518;2023-06-24T14:03:17;31.10;39.70
13694;DHT22;6919;52.344;14.518;2023-06-24T14:05:45;31.00;39.90
13694;DHT22;6919;52.344;14.518;2023-06-24T14:08:15;31.50;41.10
13694;DHT22;6919;52.344;14.518;2023-06-24T14:10:43;30.70;38.50
13694;DHT22;6919;52.344;14.518;2023-06-24T14:13:11;31.20;39.70
13694;DHT22;6919;52.344;14.518;2023-06-24T14:15:40;31.90;38.60
13694;DHT22;6919;52.344;14.518;2023-06-24T14:18:09;31.80;38.20
13694;DHT22;6919;52.344;14.518;2023-06-24T14:20:37;31.60;36.90
13694;DHT22;6919;52.344;14.518;2023-06-24T14:23:05;31.20;38.30
13694;DHT22;6919;52.344;14.518;2023-06-24T14:25:35;31.20;36.30
13694;DHT22;6919;52.344;14.518;2023-06-24T14:28:04;31.40;35.90
13694;DHT22;6919;52.344;14.518;2023-06-24T14:30:33;32.10;35.20
13694;DHT22;6919;52.344;14.518;2023-06-24T14:33:02;31.60;34.90
13694;DHT22;6919;52.344;14.518;2023-06-24T14:35:31;31.50;36.10
13694;DHT22;6919;52.344;14.518;2023-06-24T14:37:59;30.90;37.40
13694;DHT22;6919;52.344;14.518;2023-06-24T14:40:27;31.40;35.90
13694;DHT22;6919;52.344;14.518;2023-06-24T14:42:57;31.40;36.10
13694;DHT22;6919;52.344;14.518;2023-06-24T14:45:26;32.30;35.00
13694;DHT22;6919;52.344;14.518;2023-06-24T14:47:55;31.50;34.40
13694;DHT22;6919;52.344;14.518;2023-06-24T14:50:24;30.50;36.30
13694;DHT22;6919;52.344;14.518;2023-06-24T14:52:52;29.40;37.20
13694;DHT22;6919;52.344;14.518;2023-06-24T14:55:20;29.30;38.80
13694;DHT22;6919;52.344;14.518;2023-06-24T14:57:49;29.40;38.90
13694;DHT22;6919;52.344;14.518;2023-06-24T15:00:19;30.20;39.30
13694;DHT22;6919;52.344;14.518;2023-06-24T15:02:47;30.70;38.80
13694;DHT22;6919;52.344;14.518;2023-06-24T15:05:16;30.50;35.90
13694;DHT22;6919;52.344;14.518;2023-06-24T15:07:44;30.10;37.20
13694;DHT22;6919;52.344;14.518;2023-06-24T15:10:12;30.50;36.90
13694;DHT22;6919;52.344;14.518;2023-06-24T15:12:40;30.80;37.50
13694;DHT22;6919;52.344;14.518;2023-06-24T15:15:09;30.40;37.00
13694;DHT22;6919;52.344;14.518;2023-06-24T15:17:41;29.80;37.80
13694;DHT22;6919;52.344;14.518;2023-06-24T15:20:12;29.80;38.80
13694;DHT22;6919;52.344;14.518;2023-06-24T15:22:40;29.90;38.70
13694;DHT22;6919;52.344;14.518;2023-06-24T15:25:09;29.80;38.90
13694;DHT22;6919;52.344;14.518;2023-06-24T15:27:37;29.80;39.70
13694;DHT22;6919;52.344;14.518;2023-06-24T15:30:06;29.20;39.40
13694;DHT22;6919;52.344;14.518;2023-06-24T15:32:35;28.60;41.00
13694;DHT22;6919;52.344;14.518;2023-06-24T15:35:06;28.40;42.40
13694;DHT22;6919;52.344;14.518;2023-06-24T15:37:34;28.10;43.00
13694;DHT22;6919;52.344;14.518;2023-06-24T15:40:03;27.80;43.70
13694;DHT22;6919;52.344;14.518;2023-06-24T15:42:32;27.20;42.80
13694;DHT22;6919;52.344;14.518;2023-06-24T15:45:00;27.10;43.50
13694;DHT22;6919;52.344;14.518;2023-06-24T15:47:29;27.30;43.70
13694;DHT22;6919;52.344;14.518;2023-06-24T15:49:57;27.70;43.70
13694;DHT22;6919;52.344;14.518;2023-06-24T15:52:28;27.70;42.30